Time;durP1;ratioP1;P1;durP2;ratioP2;P2;SDS_P1;SDS_P2;PMS_P1;PMS_P2;Temp;Humidity;BMP_temperature;BMP_pressure;BME280_temperature;BME280_humidity;BME280_pressure;Samples;Min_cycle;Max_cycle;Signal;HPM_P1;HPM_P2
2023/09/24 00:01:21;;;;;;;5.88;2.38;;;13.20;99.90;;;;;;5045735;28;20063;-57
2023/09/24 00:03:47;;;;;;;7.68;2.78;;;13.10;99.90;;;;;;5044999;28;20087;-57
2023/09/24 00:06:14;;;;;;;5.82;2.03;;;13.10;99.90;;;;;;5048149;28;20083;-56
2023/09/24 00:08:40;;;;;;;7.93;3.10;;;13.00;99.90;;;;;;5041684;28;20049;-58
2023/09/24 00:11:05;;;;;;;7.00;2.50;;;13.00;99.90;;;;;;5027621;28;20053;-58
2023/09/24 00:13:35;;;;;;;5.45;1.98;;;12.90;99.90;;;;;;5043459;28;20025;-58
2023/09/24 00:16:06;;;;;;;5.97;2.75;;;12.90;99.90;;;;;;5043551;28;20090;-57
2023/09/24 00:18:35;;;;;;;7.13;2.80;;;12.80;99.90;;;;;;5043993;28;20041;-57
2023/09/24 00:21:02;;;;;;;7.32;2.75;;;12.80;99.90;;;;;;5043352;28;20063;-58
2023/09/24 00:23:30;;;;;;;6.72;2.53;;;12.80;99.90;;;;;;5048656;28;20041;-58
2023/09/24 00:25:57;;;;;;;6.93;2.90;;;12.80;99.90;;;;;;5032134;28;20060;-58
2023/09/24 00:28:23;;;;;;;6.13;2.45;;;12.80;99.90;;;;;;5025793;28;20051;-59
2023/09/24 00:30:50;;;;;;;5.57;2.60;;;12.70;99.90;;;;;;5048517;28;20036;-59
2023/09/24 00:33:17;;;;;;;6.40;3.00;;;12.70;99.90;;;;;;5045676;28;20116;-58
2023/09/24 00:35:43;;;;;;;6.45;2.70;;;12.70;99.90;;;;;;5025014;28;20566;-58
2023/09/24 00:38:08;;;;;;;6.60;3.10;;;12.70;99.90;;;;;;5039320;28;20057;-57
2023/09/24 00:40:34;;;;;;;8.07;2.95;;;12.60;99.90;;;;;;5041244;28;20036;-58
2023/09/24 00:43:00;;;;;;;5.70;2.65;;;12.60;99.90;;;;;;5039735;28;20500;-57
2023/09/24 00:45:26;;;;;;;6.90;2.75;;;12.50;99.90;;;;;;5042122;28;20444;-57
2023/09/24 00:47:54;;;;;;;6.60;2.65;;;12.50;99.90;;;;;;5027711;28;20045;-59
2023/09/24 00:50:21;;;;;;;6.03;2.38;;;12.50;99.90;;;;;;5051060;28;20053;-58
2023/09/24 00:52:49;;;;;;;8.25;3.58;;;12.50;99.90;;;;;;5044748;28;20124;-58
2023/09/24 00:55:16;;;;;;;5.32;2.20;;;12.40;99.90;;;;;;5055768;28;20498;-58
2023/09/24 00:57:46;;;;;;;10.05;2.63;;;12.40;99.90;;;;;;5042298;28;20132;-59
2023/09/24 01:00:17;;;;;;;7.82;3.40;;;12.40;99.90;;;;;;5007827;28;20123;-59
2023/09/24 01:02:47;;;;;;;5.10;3.33;;;12.40;99.90;;;;;;5044773;28;20116;-58
2023/09/24 01:05:14;;;;;;;8.50;3.05;;;12.40;99.90;;;;;;5043796;28;20040;-58
2023/09/24 01:07:41;;;;;;;8.18;3.92;;;12.50;99.90;;;;;;5055263;28;20047;-58
2023/09/24 01:10:09;;;;;;;8.02;3.20;;;12.50;99.90;;;;;;5045074;28;20413;-58
2023/09/24 01:12:39;;;;;;;9.23;3.40;;;12.50;99.90;;;;;;5039453;28;20037;-59
2023/09/24 01:15:11;;;;;;;6.40;2.95;;;12.50;99.90;;;;;;5043901;28;20554;-58
2023/09/24 01:17:37;;;;;;;6.25;3.13;;;12.50;99.90;;;;;;5044546;28;20594;-58
2023/09/24 01:20:05;;;;;;;8.68;3.53;;;12.50;99.90;;;;;;5023316;28;20570;-58
2023/09/24 01:22:30;;;;;;;7.28;2.88;;;12.50;99.90;;;;;;5016805;28;20897;-58
2023/09/24 01:24:56;;;;;;;6.57;2.67;;;12.50;99.90;;;;;;5046285;28;20075;-59
2023/09/24 01:27:24;;;;;;;9.35;3.28;;;12.50;99.90;;;;;;5041523;28;20045;-59
2023/09/24 01:29:52;;;;;;;6.68;2.67;;;12.50;99.90;;;;;;5026286;28;20543;-58
2023/09/24 01:32:18;;;;;;;9.00;2.60;;;12.60;99.90;;;;;;5020509;28;20049;-57
2023/09/24 01:34:45;;;;;;;9.57;3.90;;;12.60;99.90;;;;;;5040109;28;20037;-59
2023/09/24 01:37:11;;;;;;;8.25;2.78;;;12.50;99.90;;;;;;5027816;28;20056;-58
2023/09/24 01:39:37;;;;;;;6.07;2.28;;;12.50;99.90;;;;;;5043746;28;20101;-59
2023/09/24 01:42:03;;;;;;;6.07;2.38;;;12.50;99.90;;;;;;5023797;28;20041;-58
2023/09/24 01:44:32;;;;;;;6.95;2.45;;;12.50;99.90;;;;;;5037970;28;20043;-59
2023/09/24 01:46:58;;;;;;;5.45;2.55;;;12.50;99.90;;;;;;5039651;28;20467;-59
2023/09/24 01:49:24;;;;;;;4.05;2.13;;;12.50;99.90;;;;;;5034770;28;20496;-59
2023/09/24 01:51:50;;;;;;;6.47;2.40;;;12.50;99.90;;;;;;5044892;28;20037;-59
2023/09/24 01:54:15;;;;;;;7.25;2.90;;;12.40;99.90;;;;;;5022377;28;20095;-58
2023/09/24 01:56:41;;;;;;;4.30;2.13;;;12.40;99.90;;;;;;5041357;28;20057;-58
2023/09/24 01:59:07;;;;;;;6.68;2.53;;;12.50;99.90;;;;;;5039202;28;20116;-58
2023/09/24 02:01:33;;;;;;;8.52;2.92;;;12.50;99.90;;;;;;5040461;28;20045;-57
2023/09/24 02:04:01;;;;;;;6.97;2.78;;;12.50;99.90;;;;;;5042852;28;20435;-59
2023/09/24 02:06:27;;;;;;;6.15;2.75;;;12.50;99.90;;;;;;5042408;28;20045;-58
2023/09/24 02:08:53;;;;;;;6.28;2.50;;;12.50;99.90;;;;;;5042703;28;20130;-58
2023/09/24 02:11:21;;;;;;;4.90;2.33;;;12.50;99.90;;;;;;5040335;28;20040;-59
2023/09/24 02:13:46;;;;;;;8.10;3.05;;;12.50;99.90;;;;;;5038384;28;20651;-59
2023/09/24 02:16:12;;;;;;;3.88;2.47;;;12.50;99.90;;;;;;5038682;28;20116;-58
2023/09/24 02:18:39;;;;;;;4.25;2.33;;;12.50;99.90;;;;;;5038167;28;22961;-57
2023/09/24 02:21:14;;;;;;;7.18;2.38;;;12.50;99.90;;;;;;5035992;28;20147;-59
2023/09/24 02:23:43;;;;;;;6.30;2.78;;;12.60;99.90;;;;;;5036947;28;20033;-59
2023/09/24 02:26:09;;;;;;;6.00;3.00;;;12.60;99.90;;;;;;5036261;28;20608;-58
2023/09/24 02:28:38;;;;;;;5.82;2.53;;;12.60;99.90;;;;;;5033069;28;20060;-59
2023/09/24 02:31:11;;;;;;;6.15;3.35;;;12.60;99.90;;;;;;5042589;28;20041;-58
2023/09/24 02:33:37;;;;;;;4.57;2.80;;;12.60;99.90;;;;;;5039943;28;20053;-57
2023/09/24 02:36:04;;;;;;;8.18;2.78;;;12.60;99.90;;;;;;5026245;28;22592;-59
2023/09/24 02:38:30;;;;;;;4.32;2.28;;;12.60;99.90;;;;;;5041387;28;20072;-59
2023/09/24 02:40:56;;;;;;;5.72;3.25;;;12.60;99.90;;;;;;5039790;28;20068;-57
2023/09/24 02:43:23;;;;;;;6.75;2.75;;;12.70;99.90;;;;;;5026711;28;20136;-57
2023/09/24 02:45:49;;;;;;;6.10;3.33;;;12.70;99.90;;;;;;5038110;28;20049;-58
2023/09/24 02:48:17;;;;;;;6.47;3.03;;;12.80;99.90;;;;;;5040330;28;20033;-57
2023/09/24 02:50:43;;;;;;;7.03;3.78;;;12.80;99.90;;;;;;4988640;28;20122;-57
2023/09/24 02:53:09;;;;;;;6.53;3.47;;;12.80;99.90;;;;;;5042123;28;20516;-59
2023/09/24 02:55:36;;;;;;;7.78;3.55;;;12.80;99.90;;;;;;5019462;28;20042;-59
2023/09/24 02:58:03;;;;;;;8.27;3.80;;;12.90;99.90;;;;;;5030752;28;20133;-58
2023/09/24 03:00:42;;;;;;;7.72;3.80;;;12.90;99.90;;;;;;5037392;28;20047;-59
2023/09/24 03:03:09;;;;;;;5.95;3.60;;;12.90;99.90;;;;;;5042043;28;20047;-59
2023/09/24 03:05:35;;;;;;;6.60;3.90;;;12.90;99.90;;;;;;5038437;28;20064;-59
2023/09/24 03:08:03;;;;;;;7.63;3.67;;;12.90;99.90;;;;;;5037435;28;20592;-58
2023/09/24 03:10:31;;;;;;;8.27;4.07;;;13.00;99.90;;;;;;5038580;28;20069;-58
2023/09/24 03:12:58;;;;;;;7.60;4.40;;;13.00;99.90;;;;;;5040564;28;20053;-59
2023/09/24 03:15:23;;;;;;;9.00;4.40;;;13.00;99.90;;;;;;5030432;28;20072;-59
2023/09/24 03:17:51;;;;;;;6.75;4.25;;;13.00;99.90;;;;;;5037238;28;20184;-59
2023/09/24 03:20:19;;;;;;;8.07;4.30;;;13.00;99.90;;;;;;5042569;28;20040;-59
2023/09/24 03:22:50;;;;;;;7.82;4.13;;;13.00;99.90;;;;;;5038916;28;20044;-59
2023/09/24 03:25:26;;;;;;;11.48;4.70;;;13.00;99.90;;;;;;5035190;28;20045;-59
2023/09/24 03:27:55;;;;;;;6.32;4.32;;;13.00;99.90;;;;;;5042191;28;20128;-59
2023/09/24 03:30:21;;;;;;;6.43;4.32;;;13.00;99.90;;;;;;5038940;28;20048;-58
2023/09/24 03:32:48;;;;;;;8.88;4.93;;;12.90;99.90;;;;;;5014421;28;20033;-58
2023/09/24 03:35:15;;;;;;;6.72;4.70;;;12.90;99.90;;;;;;5038304;28;20369;-59
2023/09/24 03:37:45;;;;;;;8.07;4.32;;;12.90;99.90;;;;;;5044091;28;20037;-59
2023/09/24 03:40:12;;;;;;;7.43;4.32;;;12.90;99.90;;;;;;5040533;28;20041;-58
2023/09/24 03:42:38;;;;;;;8.50;4.68;;;12.80;99.90;;;;;;5017453;28;20048;-59
2023/09/24 03:45:09;;;;;;;12.07;5.72;;;12.80;99.90;;;;;;5040202;28;20080;-59
2023/09/24 03:47:36;;;;;;;9.23;4.90;;;12.80;99.90;;;;;;5039136;28;20582;-59
2023/09/24 03:50:03;;;;;;;7.35;5.13;;;12.70;99.90;;;;;;5018484;28;20406;-58
2023/09/24 03:52:30;;;;;;;8.43;4.45;;;12.70;99.90;;;;;;5037156;28;20755;-58
2023/09/24 03:54:57;;;;;;;9.77;4.68;;;12.70;99.90;;;;;;5039879;28;20083;-57
2023/09/24 03:57:27;;;;;;;9.43;4.68;;;12.60;99.90;;;;;;5038703;28;20049;-59
2023/09/24 03:59:54;;;;;;;9.60;4.85;;;12.60;99.90;;;;;;5033092;28;20052;-58
2023/09/24 04:02:21;;;;;;;9.85;5.07;;;12.60;99.90;;;;;;5051762;28;20116;-59
2023/09/24 04:04:46;;;;;;;10.10;4.38;;;12.50;99.90;;;;;;5034743;28;20049;-58
2023/09/24 04:07:15;;;;;;;8.75;5.25;;;12.50;99.90;;;;;;5042367;28;20056;-58
2023/09/24 04:09:43;;;;;;;8.43;4.60;;;12.50;99.90;;;;;;5035721;28;20053;-59
2023/09/24 04:12:10;;;;;;;9.07;5.10;;;12.50;99.90;;;;;;5034920;28;20663;-59
2023/09/24 04:14:36;;;;;;;8.15;4.80;;;12.50;99.90;;;;;;5038376;28;20066;-58
2023/09/24 04:17:02;;;;;;;11.25;5.50;;;12.40;99.90;;;;;;5043537;28;20435;-59
2023/09/24 04:19:29;;;;;;;11.23;5.50;;;12.40;99.90;;;;;;5047692;28;20049;-58
2023/09/24 04:21:55;;;;;;;12.07;5.13;;;12.40;99.90;;;;;;5041461;28;20049;-59
2023/09/24 04:24:21;;;;;;;9.13;5.13;;;12.40;99.90;;;;;;5039831;28;20060;-58
2023/09/24 04:26:47;;;;;;;8.45;5.70;;;12.40;99.90;;;;;;5026305;28;20049;-57
2023/09/24 04:29:15;;;;;;;8.70;5.32;;;12.40;99.90;;;;;;5038929;28;20061;-59
2023/09/24 04:31:42;;;;;;;8.60;5.68;;;12.40;99.90;;;;;;5046524;28;20519;-59
2023/09/24 04:34:09;;;;;;;8.07;4.85;;;12.40;99.90;;;;;;5028387;28;20045;-59
2023/09/24 04:36:35;;;;;;;10.60;6.03;;;12.40;99.90;;;;;;5025759;28;20079;-58
2023/09/24 04:39:03;;;;;;;12.25;6.03;;;12.40;99.90;;;;;;5044562;28;20033;-57
2023/09/24 04:41:29;;;;;;;8.85;5.75;;;12.50;99.90;;;;;;5043271;28;20051;-58
2023/09/24 04:43:54;;;;;;;7.72;5.05;;;12.50;99.90;;;;;;5025135;28;20049;-59
2023/09/24 04:46:20;;;;;;;8.80;5.50;;;12.50;99.90;;;;;;5021826;28;20144;-57
2023/09/24 04:48:46;;;;;;;8.52;5.88;;;12.50;99.90;;;;;;5043673;28;20057;-58
2023/09/24 04:51:12;;;;;;;10.13;5.72;;;12.50;99.90;;;;;;5024711;28;20043;-59
2023/09/24 04:53:39;;;;;;;9.32;5.97;;;12.50;99.90;;;;;;5020431;28;20036;-59
2023/09/24 04:56:08;;;;;;;10.57;6.10;;;12.50;99.90;;;;;;5044390;28;20076;-58
2023/09/24 04:58:35;;;;;;;13.68;6.88;;;12.50;99.90;;;;;;5041249;28;20055;-58
2023/09/24 05:01:05;;;;;;;9.25;6.05;;;12.50;99.90;;;;;;5041683;28;20800;-57
2023/09/24 05:03:32;;;;;;;8.93;5.55;;;12.50;99.90;;;;;;5022130;28;20128;-59
2023/09/24 05:05:58;;;;;;;10.88;6.15;;;12.50;99.90;;;;;;5031614;28;20444;-58
2023/09/24 05:08:24;;;;;;;7.28;5.63;;;12.50;99.90;;;;;;5036035;28;20060;-56
2023/09/24 05:10:49;;;;;;;8.45;6.10;;;12.50;99.90;;;;;;5047003;28;20495;-58
2023/09/24 05:13:15;;;;;;;8.82;5.68;;;12.50;99.90;;;;;;5024214;28;20068;-57
2023/09/24 05:15:48;;;;;;;10.70;6.72;;;12.40;99.90;;;;;;5047866;28;20040;-56
2023/09/24 05:18:14;;;;;;;12.15;6.22;;;12.40;99.90;;;;;;5039896;28;20048;-58
2023/09/24 05:20:39;;;;;;;10.93;5.85;;;12.40;99.90;;;;;;5041640;28;20032;-57
2023/09/24 05:23:05;;;;;;;8.82;5.40;;;12.40;99.90;;;;;;5040321;28;20046;-57
2023/09/24 05:25:35;;;;;;;11.18;6.22;;;12.30;99.90;;;;;;5057950;28;20436;-57
2023/09/24 05:28:01;;;;;;;10.43;5.70;;;12.30;99.90;;;;;;5041456;28;20130;-57
2023/09/24 05:30:26;;;;;;;11.43;6.40;;;12.20;99.90;;;;;;5022015;28;20075;-57
2023/09/24 05:32:53;;;;;;;9.23;6.30;;;12.20;99.90;;;;;;5040270;28;20097;-58
2023/09/24 05:35:19;;;;;;;9.30;5.60;;;12.20;99.90;;;;;;5048323;28;20048;-58
2023/09/24 05:37:44;;;;;;;15.25;6.57;;;12.20;99.90;;;;;;5040646;28;20037;-58
2023/09/24 05:40:10;;;;;;;9.82;6.28;;;12.20;99.90;;;;;;5024758;28;20037;-58
2023/09/24 05:42:36;;;;;;;10.30;6.22;;;12.10;99.90;;;;;;5038391;28;20045;-57
2023/09/24 05:45:02;;;;;;;11.18;6.30;;;12.10;99.90;;;;;;5041916;28;20615;-58
2023/09/24 05:47:30;;;;;;;15.35;6.25;;;12.10;99.90;;;;;;5023631;28;20163;-58
2023/09/24 05:49:55;;;;;;;11.88;5.40;;;12.10;99.90;;;;;;5033786;28;20045;-57
2023/09/24 05:52:21;;;;;;;10.77;5.95;;;12.10;99.90;;;;;;5038296;28;20044;-58
2023/09/24 05:54:47;;;;;;;10.13;5.97;;;12.10;99.90;;;;;;5045791;28;20040;-59
2023/09/24 05:57:12;;;;;;;11.27;6.25;;;12.10;99.90;;;;;;5041152;28;20547;-58
2023/09/24 05:59:38;;;;;;;12.25;6.18;;;12.10;99.90;;;;;;5040049;28;20041;-57
2023/09/24 06:02:05;;;;;;;11.60;5.78;;;12.00;99.90;;;;;;5015722;28;20046;-58
2023/09/24 06:04:31;;;;;;;12.48;5.97;;;12.10;99.90;;;;;;5034546;28;20047;-57
2023/09/24 06:06:57;;;;;;;20.30;7.60;;;12.00;99.90;;;;;;5038684;28;20045;-58
2023/09/24 06:09:22;;;;;;;12.02;6.15;;;12.00;99.90;;;;;;5043327;28;20040;-59
2023/09/24 06:11:49;;;;;;;13.15;6.32;;;12.10;99.90;;;;;;5040072;28;20073;-59
2023/09/24 06:14:15;;;;;;;12.82;7.05;;;12.00;99.90;;;;;;5027134;28;20040;-58
2023/09/24 06:16:40;;;;;;;9.77;6.82;;;12.00;99.90;;;;;;5039077;28;20604;-59
2023/09/24 06:19:06;;;;;;;13.75;7.30;;;12.00;99.90;;;;;;5041498;28;20101;-57
2023/09/24 06:21:32;;;;;;;10.02;6.32;;;12.00;99.90;;;;;;5023518;28;20044;-58
2023/09/24 06:23:57;;;;;;;15.98;7.82;;;12.10;99.90;;;;;;5041462;28;20048;-59
2023/09/24 06:26:29;;;;;;;11.10;6.65;;;12.10;99.90;;;;;;5020146;28;20106;-58
2023/09/24 06:28:55;;;;;;;10.73;7.18;;;12.10;99.90;;;;;;5038891;28;20049;-59
2023/09/24 06:31:21;;;;;;;12.48;6.47;;;12.20;99.90;;;;;;5041047;28;20091;-58
2023/09/24 06:33:47;;;;;;;12.50;6.80;;;12.20;99.90;;;;;;5039722;28;20071;-59
2023/09/24 06:36:12;;;;;;;14.77;6.95;;;12.30;99.90;;;;;;5043639;28;20135;-59
2023/09/24 06:38:38;;;;;;;13.30;6.78;;;12.30;99.90;;;;;;5036913;28;20073;-59
2023/09/24 06:41:04;;;;;;;11.63;6.53;;;12.40;99.90;;;;;;5044423;28;20047;-57
2023/09/24 06:43:30;;;;;;;13.77;7.43;;;12.40;99.90;;;;;;5021747;28;20033;-58
2023/09/24 06:45:57;;;;;;;11.57;7.00;;;12.50;99.90;;;;;;5039389;28;20095;-57
2023/09/24 06:48:23;;;;;;;12.65;6.70;;;12.50;99.90;;;;;;5026241;28;20047;-59
2023/09/24 06:50:50;;;;;;;17.45;7.18;;;12.50;99.90;;;;;;5036216;28;20072;-59
2023/09/24 06:53:16;;;;;;;11.50;7.15;;;12.50;99.90;;;;;;5036031;28;20137;-59
2023/09/24 06:55:42;;;;;;;12.98;8.15;;;12.50;99.90;;;;;;5036946;28;20050;-58
2023/09/24 06:58:09;;;;;;;14.63;7.28;;;12.50;99.90;;;;;;5040856;28;20064;-59
2023/09/24 07:00:35;;;;;;;13.05;7.10;;;12.60;99.90;;;;;;5040623;28;20130;-58
2023/09/24 07:03:00;;;;;;;12.82;6.95;;;12.60;99.90;;;;;;5039826;28;20600;-59
2023/09/24 07:05:26;;;;;;;12.68;6.95;;;12.60;99.90;;;;;;5039850;28;20128;-59
2023/09/24 07:07:53;;;;;;;13.15;7.03;;;12.70;99.90;;;;;;5035199;28;20042;-59
2023/09/24 07:10:22;;;;;;;13.60;6.90;;;12.70;99.90;;;;;;5036967;28;20652;-59
2023/09/24 07:12:48;;;;;;;11.90;6.63;;;12.80;99.90;;;;;;5035399;28;20052;-59
2023/09/24 07:15:14;;;;;;;13.55;7.45;;;12.90;99.90;;;;;;5034748;28;20044;-59
2023/09/24 07:17:40;;;;;;;13.60;7.00;;;13.00;99.90;;;;;;5019567;28;20041;-59
2023/09/24 07:20:07;;;;;;;12.82;7.80;;;13.10;99.90;;;;;;5035060;28;20092;-59
2023/09/24 07:22:33;;;;;;;11.52;7.47;;;13.20;99.90;;;;;;5034598;28;20069;-58
2023/09/24 07:24:59;;;;;;;11.13;7.40;;;13.20;99.90;;;;;;5039130;28;20112;-58
2023/09/24 07:27:24;;;;;;;11.88;6.88;;;13.30;99.90;;;;;;5035331;28;20103;-59
2023/09/24 07:29:50;;;;;;;13.93;7.53;;;13.40;99.90;;;;;;5022704;28;20113;-58
2023/09/24 07:32:16;;;;;;;11.60;6.93;;;13.40;99.90;;;;;;5035057;28;20748;-59
2023/09/24 07:34:42;;;;;;;8.95;6.10;;;13.50;99.90;;;;;;5038474;28;20042;-59
2023/09/24 07:37:08;;;;;;;10.25;7.40;;;13.60;99.90;;;;;;5034466;28;20048;-58
2023/09/24 07:39:37;;;;;;;14.35;9.27;;;13.70;99.90;;;;;;5039460;28;20051;-59
2023/09/24 07:42:03;;;;;;;15.88;10.38;;;13.80;99.90;;;;;;5035397;28;20107;-58
2023/09/24 07:44:28;;;;;;;13.30;9.00;;;13.90;99.90;;;;;;5039510;28;20798;-58
2023/09/24 07:46:54;;;;;;;15.90;9.60;;;14.00;99.90;;;;;;5035343;28;20103;-58
2023/09/24 07:49:20;;;;;;;13.93;8.23;;;14.00;99.90;;;;;;5040403;28;20047;-59
2023/09/24 07:51:46;;;;;;;13.80;6.50;;;14.20;99.90;;;;;;5041798;28;20558;-59
2023/09/24 07:54:13;;;;;;;13.05;6.82;;;14.30;99.90;;;;;;5039568;28;20106;-58
2023/09/24 07:56:41;;;;;;;11.60;6.05;;;14.40;99.90;;;;;;5041204;28;20049;-59
2023/09/24 07:59:07;;;;;;;11.48;5.65;;;14.50;99.90;;;;;;5044442;28;20033;-58
2023/09/24 08:01:33;;;;;;;10.77;5.75;;;14.60;99.90;;;;;;5045790;28;20041;-59
2023/09/24 08:03:59;;;;;;;12.48;6.38;;;14.70;99.90;;;;;;5043249;28;20063;-59
2023/09/24 08:06:28;;;;;;;10.38;5.18;;;14.70;99.90;;;;;;5040427;28;20507;-59
2023/09/24 08:08:54;;;;;;;11.25;5.75;;;14.80;99.90;;;;;;5036767;28;20694;-58
2023/09/24 08:11:20;;;;;;;9.35;4.93;;;14.80;99.90;;;;;;5041786;28;20124;-59
2023/09/24 08:13:46;;;;;;;13.00;5.43;;;14.90;99.90;;;;;;5028008;28;20116;-59
2023/09/24 08:16:13;;;;;;;9.25;5.60;;;14.90;99.90;;;;;;5042380;28;20100;-59
2023/09/24 08:18:38;;;;;;;8.95;5.72;;;15.00;99.90;;;;;;5034500;28;20045;-58
2023/09/24 08:21:04;;;;;;;8.07;4.93;;;15.00;99.90;;;;;;5039883;28;20083;-60
2023/09/24 08:23:31;;;;;;;13.90;5.47;;;15.10;99.90;;;;;;5037208;28;20040;-60
2023/09/24 08:25:57;;;;;;;13.57;5.28;;;15.30;99.90;;;;;;5038326;28;20507;-58
2023/09/24 08:28:23;;;;;;;10.65;5.25;;;15.40;99.90;;;;;;5043622;28;20090;-58
2023/09/24 08:30:48;;;;;;;9.73;5.00;;;15.50;99.90;;;;;;5025935;28;20540;-59
2023/09/24 08:33:14;;;;;;;9.77;5.10;;;15.70;99.90;;;;;;5026629;28;20036;-59
2023/09/24 08:35:40;;;;;;;9.85;4.70;;;15.70;99.90;;;;;;5037730;28;20040;-59
2023/09/24 08:38:07;;;;;;;13.02;5.03;;;15.80;99.90;;;;;;5042050;28;20126;-59
2023/09/24 08:40:32;;;;;;;7.13;4.78;;;15.90;99.90;;;;;;5039305;28;20044;-59
2023/09/24 08:42:58;;;;;;;9.38;4.90;;;15.90;99.90;;;;;;5036630;28;22661;-59
2023/09/24 08:45:29;;;;;;;11.32;4.50;;;15.90;99.90;;;;;;5037406;28;20506;-59
2023/09/24 08:47:57;;;;;;;6.60;4.22;;;16.00;99.90;;;;;;5039053;28;20037;-59
2023/09/24 08:50:24;;;;;;;10.60;4.68;;;16.00;99.90;;;;;;5040743;28;20052;-58
2023/09/24 08:52:51;;;;;;;8.23;3.85;;;16.10;99.90;;;;;;5042586;28;20091;-59
2023/09/24 08:55:17;;;;;;;13.10;4.05;;;16.20;99.90;;;;;;5026487;28;22675;-59
2023/09/24 08:57:44;;;;;;;12.20;4.65;;;16.30;99.90;;;;;;5037651;28;20053;-60
2023/09/24 09:00:12;;;;;;;13.07;4.40;;;16.40;99.90;;;;;;5038955;28;20408;-58
2023/09/24 09:02:41;;;;;;;9.45;3.88;;;16.50;99.90;;;;;;5037328;28;20056;-58
2023/09/24 09:05:27;;;;;;;10.15;4.68;;;16.50;99.90;;;;;;5037555;28;20734;-59
2023/09/24 09:08:02;;;;;;;9.55;3.72;;;16.70;99.90;;;;;;5039344;28;20044;-59
2023/09/24 09:10:30;;;;;;;7.47;3.60;;;16.80;99.90;;;;;;5042747;28;20060;-57
2023/09/24 09:13:02;;;;;;;7.30;3.53;;;16.90;99.90;;;;;;5042087;28;20103;-57
2023/09/24 09:15:28;;;;;;;7.82;4.30;;;17.10;99.90;;;;;;5039587;28;20049;-58
2023/09/24 09:17:54;;;;;;;11.98;4.30;;;17.20;99.90;;;;;;5043821;28;20055;-58
2023/09/24 09:20:41;;;;;;;6.47;3.15;;;17.20;99.90;;;;;;5046916;28;20385;-58
2023/09/24 09:23:13;;;;;;;6.95;3.60;;;17.30;99.90;;;;;;5045569;28;20135;-59
2023/09/24 09:25:52;;;;;;;6.72;2.70;;;17.40;99.90;;;;;;5026893;28;20124;-58
2023/09/24 09:28:29;;;;;;;10.52;4.03;;;17.40;99.90;;;;;;5042223;28;20053;-57
2023/09/24 09:30:57;;;;;;;6.68;3.17;;;17.40;99.90;;;;;;5034818;28;20037;-58
2023/09/24 09:33:35;;;;;;;6.82;2.88;;;17.50;99.90;;;;;;5043480;28;20052;-58
2023/09/24 09:36:02;;;;;;;9.45;3.25;;;17.50;99.90;;;;;;5043917;28;20121;-60
2023/09/24 09:38:28;;;;;;;7.15;3.03;;;17.50;99.90;;;;;;5043227;28;20456;-57
2023/09/24 09:40:58;;;;;;;7.30;2.97;;;17.50;99.90;;;;;;5013476;28;20051;-57
2023/09/24 09:43:27;;;;;;;9.20;3.15;;;17.50;99.90;;;;;;5037912;28;20048;-58
2023/09/24 09:45:54;;;;;;;6.60;2.67;;;17.50;99.90;;;;;;5043828;28;20055;-57
2023/09/24 09:48:30;;;;;;;7.18;2.95;;;17.60;99.90;;;;;;5045441;28;20056;-59
2023/09/24 09:51:07;;;;;;;7.53;2.65;;;17.60;99.90;;;;;;5043793;28;20101;-59
2023/09/24 09:53:35;;;;;;;5.80;2.42;;;17.70;99.90;;;;;;5039606;28;20620;-56
2023/09/24 09:56:04;;;;;;;8.77;2.40;;;17.70;99.90;;;;;;5043388;28;20517;-56
2023/09/24 09:58:33;;;;;;;7.28;2.80;;;17.80;99.90;;;;;;5045260;28;20040;-60
2023/09/24 10:01:00;;;;;;;5.65;3.03;;;17.90;99.90;;;;;;5028883;28;20491;-60
2023/09/24 10:03:28;;;;;;;11.25;3.60;;;17.90;99.90;;;;;;5046598;28;20060;-58
2023/09/24 10:05:57;;;;;;;8.15;2.85;;;18.00;99.90;;;;;;5047270;28;20036;-58
2023/09/24 10:08:35;;;;;;;8.60;2.55;;;18.20;99.90;;;;;;5038197;28;20115;-58
2023/09/24 10:11:02;;;;;;;8.48;3.03;;;18.20;99.90;;;;;;5026863;28;20120;-60
2023/09/24 10:13:43;;;;;;;6.78;2.58;;;18.30;99.90;;;;;;5040083;28;20053;-57
2023/09/24 10:16:30;;;;;;;8.77;2.83;;;18.40;99.90;;;;;;5039737;28;20397;-57
2023/09/24 10:19:07;;;;;;;5.28;2.63;;;18.50;99.90;;;;;;5041012;28;20396;-60
2023/09/24 10:21:53;;;;;;;5.78;2.83;;;18.50;99.90;;;;;;5043803;28;20067;-59
2023/09/24 10:24:28;;;;;;;7.03;2.67;;;18.60;99.90;;;;;;5025945;28;20059;-57
2023/09/24 10:27:03;;;;;;;9.43;2.78;;;18.70;99.90;;;;;;5039221;28;20096;-60
2023/09/24 10:29:44;;;;;;;9.02;2.80;;;18.70;99.90;;;;;;5042837;28;20147;-58
2023/09/24 10:32:13;;;;;;;9.80;2.88;;;18.70;99.90;;;;;;5041042;28;20045;-56
2023/09/24 10:34:58;;;;;;;7.10;2.22;;;18.70;99.90;;;;;;5027079;28;20047;-60
2023/09/24 10:37:33;;;;;;;4.43;2.25;;;18.80;99.90;;;;;;5039734;28;20053;-58
2023/09/24 10:39:59;;;;;;;6.63;2.70;;;18.80;99.90;;;;;;5040388;28;20657;-56
2023/09/24 10:42:37;;;;;;;6.85;2.25;;;18.80;99.90;;;;;;5041569;28;20044;-59
2023/09/24 10:45:06;;;;;;;8.35;2.72;;;18.80;99.90;;;;;;5042672;28;20102;-59
2023/09/24 10:47:35;;;;;;;7.07;2.03;;;18.90;99.90;;;;;;5041125;28;20052;-56
2023/09/24 10:50:15;;;;;;;6.15;2.30;;;19.00;99.90;;;;;;5049751;28;20073;-58
2023/09/24 10:53:01;;;;;;;6.07;2.30;;;19.10;99.90;;;;;;5042319;28;20067;-60
2023/09/24 10:55:27;;;;;;;4.93;2.00;;;19.20;99.90;;;;;;5036272;28;20044;-58
2023/09/24 10:57:54;;;;;;;7.97;2.20;;;19.30;99.90;;;;;;5045062;28;20045;-57
2023/09/24 11:00:22;;;;;;;8.55;3.25;;;19.30;99.90;;;;;;5026408;28;20052;-57
2023/09/24 11:02:55;;;;;;;7.22;2.80;;;19.40;99.90;;;;;;5043384;28;20431;-59
2023/09/24 11:05:21;;;;;;;5.40;2.27;;;19.40;99.70;;;;;;5040129;28;20045;-56
2023/09/24 11:07:46;;;;;;;7.75;2.13;;;19.40;99.90;;;;;;5035518;28;20301;-56
2023/09/24 11:10:26;;;;;;;6.32;2.45;;;19.50;99.90;;;;;;5036380;28;20044;-56
2023/09/24 11:12:57;;;;;;;10.00;2.63;;;19.70;99.90;;;;;;5020215;28;20165;-58
2023/09/24 11:15:24;;;;;;;5.80;2.20;;;19.70;99.70;;;;;;5038984;28;20072;-58
2023/09/24 11:17:54;;;;;;;8.70;2.67;;;19.70;99.60;;;;;;5034302;28;20108;-57
2023/09/24 11:20:23;;;;;;;6.97;2.05;;;19.60;99.30;;;;;;5022899;28;20045;-57
2023/09/24 11:23:02;;;;;;;6.60;2.40;;;19.60;99.40;;;;;;5035124;28;20036;-55
2023/09/24 11:25:32;;;;;;;6.35;2.15;;;19.70;99.40;;;;;;5052263;22;20072;-59
2023/09/24 11:28:00;;;;;;;5.00;2.17;;;19.60;99.10;;;;;;5023289;28;20188;-59
2023/09/24 11:30:48;;;;;;;5.18;2.05;;;19.60;99.10;;;;;;5021586;28;20036;-58
2023/09/24 11:33:22;;;;;;;8.48;2.30;;;19.60;99.30;;;;;;5023310;28;20874;-58
2023/09/24 11:35:53;;;;;;;6.35;2.13;;;19.60;98.60;;;;;;5026597;28;20060;-58
2023/09/24 11:38:28;;;;;;;6.82;2.00;;;19.50;98.50;;;;;;5025541;28;20518;-57
2023/09/24 11:41:08;;;;;;;4.45;2.10;;;19.50;98.60;;;;;;5017787;28;20037;-58
2023/09/24 11:43:35;;;;;;;4.28;1.98;;;19.40;98.10;;;;;;5003439;28;20844;-60
2023/09/24 11:46:01;;;;;;;5.53;1.92;;;19.40;98.60;;;;;;5017981;28;20377;-57
2023/09/24 11:48:28;;;;;;;4.88;2.20;;;19.50;98.70;;;;;;5004409;28;20103;-60
2023/09/24 11:50:55;;;;;;;3.80;1.90;;;19.60;98.30;;;;;;5018851;28;20129;-56
2023/09/24 11:53:25;;;;;;;4.35;2.03;;;19.60;97.90;;;;;;5017711;28;20044;-57
2023/09/24 11:55:56;;;;;;;8.98;2.03;;;19.60;98.10;;;;;;5018777;28;20105;-59
2023/09/24 11:58:26;;;;;;;8.38;2.50;;;19.70;98.00;;;;;;5025986;28;20052;-58
2023/09/24 12:00:53;;;;;;;5.63;2.10;;;19.70;97.80;;;;;;5000514;28;20492;-56
2023/09/24 12:03:22;;;;;;;6.50;2.45;;;19.90;98.00;;;;;;5022990;28;20589;-57
2023/09/24 12:05:48;;;;;;;3.30;1.75;;;20.00;97.60;;;;;;5028960;28;20049;-60
2023/09/24 12:08:14;;;;;;;6.30;2.17;;;20.10;97.40;;;;;;5041962;28;20064;-59
2023/09/24 12:10:42;;;;;;;4.57;1.73;;;20.20;97.20;;;;;;5025776;28;20053;-58
2023/09/24 12:13:08;;;;;;;4.93;1.90;;;20.20;96.70;;;;;;5024184;28;21829;-56
2023/09/24 12:15:34;;;;;;;4.07;1.63;;;20.20;96.80;;;;;;5024475;28;20579;-57
2023/09/24 12:18:04;;;;;;;4.65;2.00;;;20.30;96.70;;;;;;5021991;28;20033;-57
2023/09/24 12:20:31;;;;;;;4.68;1.83;;;20.30;96.50;;;;;;5028573;28;20037;-59
2023/09/24 12:22:59;;;;;;;4.43;1.73;;;20.30;96.80;;;;;;5007683;28;20057;-58
2023/09/24 12:25:25;;;;;;;4.22;1.52;;;20.40;96.90;;;;;;5027962;28;20049;-58
2023/09/24 12:27:52;;;;;;;5.15;2.10;;;20.30;96.00;;;;;;5022135;28;20442;-59
2023/09/24 12:30:18;;;;;;;4.13;1.55;;;20.20;96.90;;;;;;5041122;28;20044;-60
2023/09/24 12:32:45;;;;;;;7.07;2.67;;;20.30;97.20;;;;;;5026768;28;20044;-57
2023/09/24 12:35:11;;;;;;;4.72;1.60;;;20.30;97.00;;;;;;5010606;28;20495;-60
2023/09/24 12:37:38;;;;;;;4.35;1.90;;;20.40;97.40;;;;;;5028043;28;20037;-57
2023/09/24 12:40:06;;;;;;;5.60;1.95;;;20.30;97.20;;;;;;5023983;28;20789;-58
2023/09/24 12:42:37;;;;;;;3.55;1.70;;;20.20;97.20;;;;;;5008880;28;20048;-57
2023/09/24 12:45:04;;;;;;;5.18;1.95;;;20.10;97.90;;;;;;5009815;28;20555;-57
2023/09/24 12:47:33;;;;;;;6.78;2.30;;;20.10;97.80;;;;;;5029311;28;20119;-60